sensor_id;sensor_type;location;lat;lon;timestamp;pressure;altitude;pressure_sealevel;temperature;humidity
69351;BME280;57106;51.446;-2.606;2023-05-03T00:00:21;102613.42;;;13.67;65.67
69351;BME280;57106;51.446;-2.606;2023-05-03T00:02:46;102615.91;;;13.76;65.61
69351;BME280;57106;51.446;-2.606;2023-05-03T00:05:12;102621.60;;;13.51;66.55
69351;BME280;57106;51.446;-2.606;2023-05-03T00:07:37;102624.61;;;13.65;65.66
69351;BME280;57106;51.446;-2.606;2023-05-03T00:10:03;102626.92;;;13.72;65.84
69351;BME280;57106;51.446;-2.606;2023-05-03T00:12:29;102630.43;;;13.84;65.60
69351;BME280;57106;51.446;-2.606;2023-05-03T00:14:54;102629.61;;;13.72;66.08
69351;BME280;57106;51.446;-2.606;2023-05-03T00:17:19;102626.75;;;13.81;65.67
69351;BME280;57106;51.446;-2.606;2023-05-03T00:19:45;102626.10;;;13.79;65.55
69351;BME280;57106;51.446;-2.606;2023-05-03T00:22:10;102624.92;;;13.82;65.77
69351;BME280;57106;51.446;-2.606;2023-05-03T00:24:36;102630.31;;;13.88;65.69
69351;BME280;57106;51.446;-2.606;2023-05-03T00:27:02;102628.45;;;13.78;65.63
69351;BME280;57106;51.446;-2.606;2023-05-03T00:29:27;102629.97;;;13.63;66.23
69351;BME280;57106;51.446;-2.606;2023-05-03T00:31:52;102629.36;;;13.30;67.30
69351;BME280;57106;51.446;-2.606;2023-05-03T00:34:18;102630.15;;;13.45;67.11
69351;BME280;57106;51.446;-2.606;2023-05-03T00:36:43;102627.99;;;13.30;67.61
69351;BME280;57106;51.446;-2.606;2023-05-03T00:39:08;102626.89;;;13.46;67.19
69351;BME280;57106;51.446;-2.606;2023-05-03T00:41:34;102625.06;;;13.25;67.75
69351;BME280;57106;51.446;-2.606;2023-05-03T00:43:59;102625.12;;;13.58;66.78
69351;BME280;57106;51.446;-2.606;2023-05-03T00:46:24;102623.53;;;13.38;67.46
69351;BME280;57106;51.446;-2.606;2023-05-03T00:48:50;102622.88;;;13.26;67.90
69351;BME280;57106;51.446;-2.606;2023-05-03T00:51:15;102619.25;;;13.23;67.95
69351;BME280;57106;51.446;-2.606;2023-05-03T00:53:41;102617.16;;;13.20;68.15
69351;BME280;57106;51.446;-2.606;2023-05-03T00:56:07;102608.97;;;13.26;67.79
69351;BME280;57106;51.446;-2.606;2023-05-03T00:58:32;102609.71;;;12.99;67.72
69351;BME280;57106;51.446;-2.606;2023-05-03T01:00:58;102606.86;;;12.74;68.01
69351;BME280;57106;51.446;-2.606;2023-05-03T01:03:23;102605.58;;;12.69;67.15
69351;BME280;57106;51.446;-2.606;2023-05-03T01:05:58;102602.84;;;12.60;67.47
69351;BME280;57106;51.446;-2.606;2023-05-03T01:10:45;102598.52;;;12.67;67.24
69351;BME280;57106;51.446;-2.606;2023-05-03T01:13:10;102595.88;;;12.76;67.05
69351;BME280;57106;51.446;-2.606;2023-05-03T01:15:42;102598.13;;;12.64;67.26
69351;BME280;57106;51.446;-2.606;2023-05-03T01:18:00;102594.83;;;12.65;67.02
69351;BME280;57106;51.446;-2.606;2023-05-03T01:20:22;102591.68;;;12.75;66.53
69351;BME280;57106;51.446;-2.606;2023-05-03T01:22:54;102596.96;;;12.44;66.83
69351;BME280;57106;51.446;-2.606;2023-05-03T01:25:14;102589.66;;;12.14;66.86
69351;BME280;57106;51.446;-2.606;2023-05-03T01:27:39;102589.00;;;12.11;66.77
69351;BME280;57106;51.446;-2.606;2023-05-03T01:30:06;102588.90;;;12.11;66.73
69351;BME280;57106;51.446;-2.606;2023-05-03T01:32:34;102590.67;;;12.02;66.84
69351;BME280;57106;51.446;-2.606;2023-05-03T01:35:03;102592.49;;;11.82;66.85
69351;BME280;57106;51.446;-2.606;2023-05-03T01:37:20;102592.56;;;11.83;67.19
69351;BME280;57106;51.446;-2.606;2023-05-03T01:39:50;102589.64;;;12.02;66.45
69351;BME280;57106;51.446;-2.606;2023-05-03T01:42:13;102590.90;;;11.86;66.48
69351;BME280;57106;51.446;-2.606;2023-05-03T01:44:37;102594.88;;;11.77;66.41
69351;BME280;57106;51.446;-2.606;2023-05-03T01:47:03;102591.61;;;11.78;66.46
69351;BME280;57106;51.446;-2.606;2023-05-03T01:49:28;102590.02;;;11.68;66.76
69351;BME280;57106;51.446;-2.606;2023-05-03T01:51:54;102593.34;;;11.89;66.10
69351;BME280;57106;51.446;-2.606;2023-05-03T01:54:20;102593.69;;;11.82;66.00
69351;BME280;57106;51.446;-2.606;2023-05-03T01:56:45;102590.23;;;11.71;65.68
69351;BME280;57106;51.446;-2.606;2023-05-03T01:59:10;102594.65;;;11.52;65.92
69351;BME280;57106;51.446;-2.606;2023-05-03T02:01:36;102591.08;;;11.57;65.77
69351;BME280;57106;51.446;-2.606;2023-05-03T02:04:02;102592.61;;;11.35;66.32
69351;BME280;57106;51.446;-2.606;2023-05-03T02:06:27;102589.64;;;11.26;66.53
69351;BME280;57106;51.446;-2.606;2023-05-03T02:08:53;102589.56;;;11.50;65.76
69351;BME280;57106;51.446;-2.606;2023-05-03T02:11:18;102590.65;;;11.43;65.46
69351;BME280;57106;51.446;-2.606;2023-05-03T02:13:44;102588.10;;;11.42;65.61
69351;BME280;57106;51.446;-2.606;2023-05-03T02:16:09;102586.88;;;11.32;65.24
69351;BME280;57106;51.446;-2.606;2023-05-03T02:18:35;102588.69;;;11.38;65.54
69351;BME280;57106;51.446;-2.606;2023-05-03T02:21:01;102593.03;;;11.49;64.97
69351;BME280;57106;51.446;-2.606;2023-05-03T02:23:26;102591.90;;;11.61;64.30
69351;BME280;57106;51.446;-2.606;2023-05-03T02:25:52;102597.05;;;11.44;64.27
69351;BME280;57106;51.446;-2.606;2023-05-03T02:28:17;102598.61;;;11.19;64.32
69351;BME280;57106;51.446;-2.606;2023-05-03T02:30:43;102598.68;;;11.12;64.60
69351;BME280;57106;51.446;-2.606;2023-05-03T02:33:09;102601.66;;;11.21;64.46
69351;BME280;57106;51.446;-2.606;2023-05-03T02:35:34;102605.69;;;11.15;64.00
69351;BME280;57106;51.446;-2.606;2023-05-03T02:38:00;102602.76;;;10.88;64.85
69351;BME280;57106;51.446;-2.606;2023-05-03T02:40:26;102604.98;;;11.00;64.49
69351;BME280;57106;51.446;-2.606;2023-05-03T02:42:51;102600.84;;;11.11;64.08
69351;BME280;57106;51.446;-2.606;2023-05-03T02:45:16;102602.13;;;10.99;63.41
69351;BME280;57106;51.446;-2.606;2023-05-03T02:47:42;102597.27;;;10.86;63.54
69351;BME280;57106;51.446;-2.606;2023-05-03T02:50:08;102595.35;;;10.87;63.63
69351;BME280;57106;51.446;-2.606;2023-05-03T02:52:33;102592.65;;;10.98;62.86
69351;BME280;57106;51.446;-2.606;2023-05-03T02:54:59;102591.91;;;10.98;62.49
69351;BME280;57106;51.446;-2.606;2023-05-03T02:57:24;102587.43;;;11.12;62.69
69351;BME280;57106;51.446;-2.606;2023-05-03T02:59:50;102588.28;;;11.12;61.94
69351;BME280;57106;51.446;-2.606;2023-05-03T03:02:16;102587.32;;;11.14;61.83
69351;BME280;57106;51.446;-2.606;2023-05-03T03:04:41;102580.34;;;10.87;61.97
69351;BME280;57106;51.446;-2.606;2023-05-03T03:07:07;102578.92;;;10.82;62.15
69351;BME280;57106;51.446;-2.606;2023-05-03T03:09:32;102575.91;;;10.78;62.23
69351;BME280;57106;51.446;-2.606;2023-05-03T03:12:00;102577.87;;;10.63;62.17
69351;BME280;57106;51.446;-2.606;2023-05-03T03:14:24;102574.00;;;10.47;62.63
69351;BME280;57106;51.446;-2.606;2023-05-03T03:16:50;102573.96;;;10.54;62.83
69351;BME280;57106;51.446;-2.606;2023-05-03T03:19:15;102570.92;;;10.61;62.38
69351;BME280;57106;51.446;-2.606;2023-05-03T03:21:40;102570.20;;;10.56;61.99
69351;BME280;57106;51.446;-2.606;2023-05-03T03:24:11;102569.40;;;10.49;62.04
69351;BME280;57106;51.446;-2.606;2023-05-03T03:26:32;102565.98;;;10.41;62.15
69351;BME280;57106;51.446;-2.606;2023-05-03T03:28:57;102562.73;;;10.36;61.99
69351;BME280;57106;51.446;-2.606;2023-05-03T03:31:23;102555.09;;;10.30;62.21
69351;BME280;57106;51.446;-2.606;2023-05-03T03:33:48;102552.25;;;10.36;62.02
69351;BME280;57106;51.446;-2.606;2023-05-03T03:36:14;102550.86;;;10.21;62.45
69351;BME280;57106;51.446;-2.606;2023-05-03T03:38:46;102544.29;;;10.30;62.09
69351;BME280;57106;51.446;-2.606;2023-05-03T03:41:05;102540.78;;;10.23;62.17
69351;BME280;57106;51.446;-2.606;2023-05-03T03:43:30;102540.09;;;10.17;62.39
69351;BME280;57106;51.446;-2.606;2023-05-03T03:45:56;102538.31;;;9.97;62.85
69351;BME280;57106;51.446;-2.606;2023-05-03T03:48:22;102536.85;;;10.04;62.68
69351;BME280;57106;51.446;-2.606;2023-05-03T03:50:48;102532.31;;;9.97;62.50
69351;BME280;57106;51.446;-2.606;2023-05-03T03:53:13;102534.08;;;10.01;62.41
69351;BME280;57106;51.446;-2.606;2023-05-03T03:55:39;102533.89;;;9.86;62.88
69351;BME280;57106;51.446;-2.606;2023-05-03T03:58:04;102527.96;;;9.92;62.57
69351;BME280;57106;51.446;-2.606;2023-05-03T04:00:30;102525.89;;;9.93;62.84
69351;BME280;57106;51.446;-2.606;2023-05-03T04:02:55;102525.09;;;9.87;62.72
69351;BME280;57106;51.446;-2.606;2023-05-03T04:05:21;102524.38;;;9.94;62.44
69351;BME280;57106;51.446;-2.606;2023-05-03T04:07:47;102523.27;;;10.07;62.39
69351;BME280;57106;51.446;-2.606;2023-05-03T04:10:12;102527.66;;;9.93;62.03
69351;BME280;57106;51.446;-2.606;2023-05-03T04:12:38;102526.22;;;10.12;61.79
69351;BME280;57106;51.446;-2.606;2023-05-03T04:15:06;102524.97;;;10.01;61.92
69351;BME280;57106;51.446;-2.606;2023-05-03T04:17:29;102525.20;;;9.87;62.01
69351;BME280;57106;51.446;-2.606;2023-05-03T04:19:55;102527.02;;;9.82;62.39
69351;BME280;57106;51.446;-2.606;2023-05-03T04:22:20;102522.58;;;9.70;62.52
69351;BME280;57106;51.446;-2.606;2023-05-03T04:24:46;102523.08;;;9.66;62.57
69351;BME280;57106;51.446;-2.606;2023-05-03T04:27:11;102524.31;;;9.74;62.32
69351;BME280;57106;51.446;-2.606;2023-05-03T04:29:37;102523.05;;;9.80;62.31
69351;BME280;57106;51.446;-2.606;2023-05-03T04:32:03;102517.76;;;9.75;62.33
69351;BME280;57106;51.446;-2.606;2023-05-03T04:34:28;102521.76;;;9.75;62.22
69351;BME280;57106;51.446;-2.606;2023-05-03T04:36:54;102523.45;;;9.75;62.41
69351;BME280;57106;51.446;-2.606;2023-05-03T04:39:20;102523.44;;;9.80;61.74
69351;BME280;57106;51.446;-2.606;2023-05-03T04:41:45;102526.73;;;9.95;61.61
69351;BME280;57106;51.446;-2.606;2023-05-03T04:44:11;102527.95;;;9.83;61.82
69351;BME280;57106;51.446;-2.606;2023-05-03T04:46:36;102526.34;;;9.97;61.50
69351;BME280;57106;51.446;-2.606;2023-05-03T04:49:02;102524.73;;;10.07;61.02
69351;BME280;57106;51.446;-2.606;2023-05-03T04:51:28;102525.66;;;10.04;61.09
69351;BME280;57106;51.446;-2.606;2023-05-03T04:53:53;102521.83;;;10.09;60.82
69351;BME280;57106;51.446;-2.606;2023-05-03T04:56:19;102523.40;;;10.23;60.66
69351;BME280;57106;51.446;-2.606;2023-05-03T04:58:44;102525.54;;;10.30;60.29
69351;BME280;57106;51.446;-2.606;2023-05-03T05:01:10;102524.98;;;10.22;60.31
69351;BME280;57106;51.446;-2.606;2023-05-03T05:03:36;102525.16;;;10.14;60.33
69351;BME280;57106;51.446;-2.606;2023-05-03T05:06:01;102526.29;;;10.13;60.39
69351;BME280;57106;51.446;-2.606;2023-05-03T05:08:27;102529.02;;;10.22;60.25
69351;BME280;57106;51.446;-2.606;2023-05-03T05:10:52;102530.41;;;10.03;60.69
69351;BME280;57106;51.446;-2.606;2023-05-03T05:13:18;102528.49;;;10.21;60.41
69351;BME280;57106;51.446;-2.606;2023-05-03T05:15:44;102526.95;;;10.20;60.02
69351;BME280;57106;51.446;-2.606;2023-05-03T05:18:09;102533.96;;;10.28;59.82
69351;BME280;57106;51.446;-2.606;2023-05-03T05:20:35;102534.95;;;10.85;58.78
69351;BME280;57106;51.446;-2.606;2023-05-03T05:23:00;102535.93;;;10.92;57.62
69351;BME280;57106;51.446;-2.606;2023-05-03T05:25:26;102536.88;;;11.34;57.13
69351;BME280;57106;51.446;-2.606;2023-05-03T05:27:52;102534.67;;;11.62;55.88
69351;BME280;57106;51.446;-2.606;2023-05-03T05:30:17;102539.99;;;11.90;55.18
69351;BME280;57106;51.446;-2.606;2023-05-03T05:32:43;102543.76;;;11.92;54.67
69351;BME280;57106;51.446;-2.606;2023-05-03T05:35:09;102544.03;;;11.93;55.07
69351;BME280;57106;51.446;-2.606;2023-05-03T05:37:34;102543.99;;;11.99;54.71
69351;BME280;57106;51.446;-2.606;2023-05-03T05:40:00;102543.88;;;11.88;55.69
69351;BME280;57106;51.446;-2.606;2023-05-03T05:42:25;102544.78;;;12.11;54.83
69351;BME280;57106;51.446;-2.606;2023-05-03T05:44:51;102545.33;;;11.96;55.49
69351;BME280;57106;51.446;-2.606;2023-05-03T05:47:16;102547.83;;;11.72;55.50
69351;BME280;57106;51.446;-2.606;2023-05-03T05:49:42;102542.89;;;11.72;55.48
69351;BME280;57106;51.446;-2.606;2023-05-03T05:52:07;102547.78;;;11.53;55.96
69351;BME280;57106;51.446;-2.606;2023-05-03T05:54:33;102549.25;;;11.57;55.86
69351;BME280;57106;51.446;-2.606;2023-05-03T05:56:59;102551.94;;;11.51;56.22
69351;BME280;57106;51.446;-2.606;2023-05-03T05:59:29;102556.67;;;11.57;55.93
69351;BME280;57106;51.446;-2.606;2023-05-03T06:01:50;102561.53;;;11.72;56.11
69351;BME280;57106;51.446;-2.606;2023-05-03T06:04:15;102562.70;;;11.67;56.10
69351;BME280;57106;51.446;-2.606;2023-05-03T06:06:41;102562.16;;;11.34;57.45
69351;BME280;57106;51.446;-2.606;2023-05-03T06:09:07;102563.07;;;11.10;58.10
69351;BME280;57106;51.446;-2.606;2023-05-03T06:11:32;102563.77;;;11.09;58.05
69351;BME280;57106;51.446;-2.606;2023-05-03T06:13:58;102565.91;;;11.09;58.47
69351;BME280;57106;51.446;-2.606;2023-05-03T06:16:24;102566.13;;;11.49;57.22
69351;BME280;57106;51.446;-2.606;2023-05-03T06:18:49;102568.72;;;11.82;56.33
69351;BME280;57106;51.446;-2.606;2023-05-03T06:21:14;102566.75;;;11.64;56.53
69351;BME280;57106;51.446;-2.606;2023-05-03T06:23:40;102564.33;;;11.69;56.61
69351;BME280;57106;51.446;-2.606;2023-05-03T06:26:06;102567.46;;;11.48;57.19
69351;BME280;57106;51.446;-2.606;2023-05-03T06:28:31;102570.59;;;11.35;57.39
69351;BME280;57106;51.446;-2.606;2023-05-03T06:30:57;102570.79;;;11.90;56.21
69351;BME280;57106;51.446;-2.606;2023-05-03T06:33:23;102566.62;;;11.96;55.60
69351;BME280;57106;51.446;-2.606;2023-05-03T06:35:49;102567.91;;;12.22;55.45
69351;BME280;57106;51.446;-2.606;2023-05-03T06:38:13;102570.05;;;12.41;54.74
69351;BME280;57106;51.446;-2.606;2023-05-03T06:40:39;102572.05;;;12.72;54.32
69351;BME280;57106;51.446;-2.606;2023-05-03T06:43:05;102571.31;;;12.41;54.55
69351;BME280;57106;51.446;-2.606;2023-05-03T06:45:30;102567.62;;;12.44;53.97
69351;BME280;57106;51.446;-2.606;2023-05-03T06:47:56;102572.65;;;12.47;54.98
69351;BME280;57106;51.446;-2.606;2023-05-03T06:50:21;102569.45;;;12.09;54.48
69351;BME280;57106;51.446;-2.606;2023-05-03T06:52:47;102570.84;;;12.25;54.47
69351;BME280;57106;51.446;-2.606;2023-05-03T06:55:12;102569.97;;;11.85;54.61
69351;BME280;57106;51.446;-2.606;2023-05-03T06:57:39;102569.29;;;12.14;54.42
69351;BME280;57106;51.446;-2.606;2023-05-03T07:00:04;102569.88;;;12.34;54.23
69351;BME280;57106;51.446;-2.606;2023-05-03T07:02:29;102569.29;;;12.43;53.85
69351;BME280;57106;51.446;-2.606;2023-05-03T07:04:54;102566.98;;;12.54;53.71
69351;BME280;57106;51.446;-2.606;2023-05-03T07:07:20;102573.23;;;12.43;53.98
69351;BME280;57106;51.446;-2.606;2023-05-03T07:09:46;102569.08;;;12.54;53.07
69351;BME280;57106;51.446;-2.606;2023-05-03T07:12:11;102572.39;;;12.27;53.35
69351;BME280;57106;51.446;-2.606;2023-05-03T07:14:37;102572.35;;;12.37;53.72
69351;BME280;57106;51.446;-2.606;2023-05-03T07:17:02;102569.10;;;12.36;53.27
69351;BME280;57106;51.446;-2.606;2023-05-03T07:19:28;102569.35;;;12.13;53.66
69351;BME280;57106;51.446;-2.606;2023-05-03T07:21:54;102568.90;;;11.99;53.58
69351;BME280;57106;51.446;-2.606;2023-05-03T07:24:19;102568.58;;;12.11;53.88
69351;BME280;57106;51.446;-2.606;2023-05-03T07:26:45;102563.93;;;12.17;53.32
69351;BME280;57106;51.446;-2.606;2023-05-03T07:29:10;102562.95;;;12.11;53.76
69351;BME280;57106;51.446;-2.606;2023-05-03T07:31:35;102563.84;;;12.05;53.71
69351;BME280;57106;51.446;-2.606;2023-05-03T07:34:01;102562.12;;;11.98;53.68
69351;BME280;57106;51.446;-2.606;2023-05-03T07:36:27;102564.54;;;12.29;53.01
69351;BME280;57106;51.446;-2.606;2023-05-03T07:38:52;102565.74;;;12.51;52.82
69351;BME280;57106;51.446;-2.606;2023-05-03T07:41:18;102566.36;;;12.73;52.22
69351;BME280;57106;51.446;-2.606;2023-05-03T07:43:43;102567.33;;;12.68;52.51
69351;BME280;57106;51.446;-2.606;2023-05-03T07:46:11;102569.29;;;12.54;52.74
69351;BME280;57106;51.446;-2.606;2023-05-03T07:48:34;102568.35;;;12.51;53.23
69351;BME280;57106;51.446;-2.606;2023-05-03T07:51:02;102558.41;;;12.57;52.72
69351;BME280;57106;51.446;-2.606;2023-05-03T07:53:26;102563.72;;;12.94;52.23
69351;BME280;57106;51.446;-2.606;2023-05-03T07:55:53;102566.38;;;13.16;51.83
69351;BME280;57106;51.446;-2.606;2023-05-03T07:58:17;102567.38;;;12.85;51.73
69351;BME280;57106;51.446;-2.606;2023-05-03T08:00:42;102567.29;;;12.84;51.87
69351;BME280;57106;51.446;-2.606;2023-05-03T08:03:08;102566.27;;;12.88;51.53
69351;BME280;57106;51.446;-2.606;2023-05-03T08:05:33;102563.13;;;13.22;50.82
69351;BME280;57106;51.446;-2.606;2023-05-03T08:07:59;102563.35;;;13.24;50.89
69351;BME280;57106;51.446;-2.606;2023-05-03T08:10:25;102560.27;;;13.03;51.54
69351;BME280;57106;51.446;-2.606;2023-05-03T08:12:50;102561.67;;;13.02;51.35
69351;BME280;57106;51.446;-2.606;2023-05-03T08:15:15;102557.78;;;12.78;52.19
69351;BME280;57106;51.446;-2.606;2023-05-03T08:17:42;102559.88;;;13.07;52.31
69351;BME280;57106;51.446;-2.606;2023-05-03T08:20:07;102554.81;;;13.48;50.79
69351;BME280;57106;51.446;-2.606;2023-05-03T08:22:32;102555.21;;;13.51;50.36
69351;BME280;57106;51.446;-2.606;2023-05-03T08:24:57;102556.08;;;13.60;50.43
69351;BME280;57106;51.446;-2.606;2023-05-03T08:27:23;102554.69;;;13.69;50.32
69351;BME280;57106;51.446;-2.606;2023-05-03T08:29:48;102547.40;;;13.86;50.21
69351;BME280;57106;51.446;-2.606;2023-05-03T08:32:14;102548.72;;;13.66;50.14
69351;BME280;57106;51.446;-2.606;2023-05-03T08:34:39;102544.89;;;13.44;50.86
69351;BME280;57106;51.446;-2.606;2023-05-03T08:37:05;102545.74;;;13.59;50.24
69351;BME280;57106;51.446;-2.606;2023-05-03T08:39:30;102544.26;;;13.92;50.38
69351;BME280;57106;51.446;-2.606;2023-05-03T08:41:56;102540.33;;;14.03;49.93
69351;BME280;57106;51.446;-2.606;2023-05-03T08:44:22;102537.80;;;13.92;50.14
69351;BME280;57106;51.446;-2.606;2023-05-03T08:46:48;102532.74;;;14.15;49.67
69351;BME280;57106;51.446;-2.606;2023-05-03T08:49:13;102533.01;;;14.19;49.34
69351;BME280;57106;51.446;-2.606;2023-05-03T08:51:40;102527.85;;;14.24;49.27
69351;BME280;57106;51.446;-2.606;2023-05-03T08:54:03;102526.83;;;14.48;49.15
69351;BME280;57106;51.446;-2.606;2023-05-03T08:56:32;102520.21;;;14.56;48.24
69351;BME280;57106;51.446;-2.606;2023-05-03T08:58:55;102524.23;;;14.36;49.66
69351;BME280;57106;51.446;-2.606;2023-05-03T09:01:20;102516.90;;;14.29;50.27
69351;BME280;57106;51.446;-2.606;2023-05-03T09:03:48;102513.72;;;14.52;49.95
69351;BME280;57106;51.446;-2.606;2023-05-03T09:06:18;102512.47;;;14.60;49.39
69351;BME280;57106;51.446;-2.606;2023-05-03T09:08:42;102510.61;;;14.78;49.09
69351;BME280;57106;51.446;-2.606;2023-05-03T09:11:02;102506.49;;;14.62;49.44
69351;BME280;57106;51.446;-2.606;2023-05-03T09:13:30;102504.74;;;14.57;49.85
69351;BME280;57106;51.446;-2.606;2023-05-03T09:15:53;102504.16;;;14.59;50.46
69351;BME280;57106;51.446;-2.606;2023-05-03T09:18:19;102499.35;;;14.32;50.39
69351;BME280;57106;51.446;-2.606;2023-05-03T09:20:45;102501.10;;;14.48;50.67
69351;BME280;57106;51.446;-2.606;2023-05-03T09:23:09;102497.95;;;14.55;48.82
69351;BME280;57106;51.446;-2.606;2023-05-03T09:25:41;102498.56;;;14.71;48.98
69351;BME280;57106;51.446;-2.606;2023-05-03T09:28:00;102495.51;;;14.92;48.74
69351;BME280;57106;51.446;-2.606;2023-05-03T09:30:26;102491.70;;;14.83;48.85
69351;BME280;57106;51.446;-2.606;2023-05-03T09:32:51;102486.17;;;14.87;48.33
69351;BME280;57106;51.446;-2.606;2023-05-03T09:35:17;102486.98;;;14.86;48.45
69351;BME280;57106;51.446;-2.606;2023-05-03T09:37:42;102483.57;;;14.84;48.34
69351;BME280;57106;51.446;-2.606;2023-05-03T09:40:08;102482.10;;;14.96;48.59
69351;BME280;57106;51.446;-2.606;2023-05-03T09:42:33;102481.30;;;15.25;48.50
69351;BME280;57106;51.446;-2.606;2023-05-03T09:44:58;102475.96;;;15.38;48.30
69351;BME280;57106;51.446;-2.606;2023-05-03T09:47:24;102479.17;;;15.44;49.00
69351;BME280;57106;51.446;-2.606;2023-05-03T09:49:50;102478.00;;;15.55;48.74
69351;BME280;57106;51.446;-2.606;2023-05-03T09:52:15;102475.08;;;15.48;48.40
69351;BME280;57106;51.446;-2.606;2023-05-03T09:54:41;102471.94;;;15.58;48.61
69351;BME280;57106;51.446;-2.606;2023-05-03T09:57:07;102467.65;;;15.54;48.60
69351;BME280;57106;51.446;-2.606;2023-05-03T09:59:32;102471.05;;;15.68;48.93
69351;BME280;57106;51.446;-2.606;2023-05-03T10:01:58;102470.28;;;15.47;49.29
69351;BME280;57106;51.446;-2.606;2023-05-03T10:04:25;102464.39;;;15.58;49.37
69351;BME280;57106;51.446;-2.606;2023-05-03T10:06:48;102465.97;;;15.39;49.36
69351;BME280;57106;51.446;-2.606;2023-05-03T10:09:16;102468.48;;;15.42;49.51
69351;BME280;57106;51.446;-2.606;2023-05-03T10:11:42;102459.58;;;15.18;49.91
69351;BME280;57106;51.446;-2.606;2023-05-03T10:14:05;102463.34;;;15.29;49.75
69351;BME280;57106;51.446;-2.606;2023-05-03T10:16:32;102464.59;;;15.12;50.50
69351;BME280;57106;51.446;-2.606;2023-05-03T10:19:00;102460.03;;;15.37;50.02
69351;BME280;57106;51.446;-2.606;2023-05-03T10:21:28;102465.58;;;15.59;49.98
69351;BME280;57106;51.446;-2.606;2023-05-03T10:26:14;102457.36;;;15.36;50.45
69351;BME280;57106;51.446;-2.606;2023-05-03T10:28:37;102457.60;;;15.41;50.57
69351;BME280;57106;51.446;-2.606;2023-05-03T10:31:02;102455.70;;;15.33;50.99
69351;BME280;57106;51.446;-2.606;2023-05-03T10:33:29;102451.79;;;15.41;50.80
69351;BME280;57106;51.446;-2.606;2023-05-03T10:35:53;102451.45;;;15.45;50.77
69351;BME280;57106;51.446;-2.606;2023-05-03T10:38:21;102437.78;;;15.49;50.67
69351;BME280;57106;51.446;-2.606;2023-05-03T10:40:44;102441.03;;;15.59;50.62
69351;BME280;57106;51.446;-2.606;2023-05-03T10:45:37;102437.32;;;15.77;49.78
69351;BME280;57106;51.446;-2.606;2023-05-03T10:48:15;102433.64;;;15.90;49.67
69351;BME280;57106;51.446;-2.606;2023-05-03T10:50:27;102434.94;;;15.75;49.67
69351;BME280;57106;51.446;-2.606;2023-05-03T10:52:51;102428.74;;;15.96;49.58
69351;BME280;57106;51.446;-2.606;2023-05-03T10:55:18;102425.39;;;16.33;49.00
69351;BME280;57106;51.446;-2.606;2023-05-03T10:57:44;102421.87;;;15.99;49.46
69351;BME280;57106;51.446;-2.606;2023-05-03T11:00:12;102413.40;;;15.87;50.33
69351;BME280;57106;51.446;-2.606;2023-05-03T11:02:38;102408.52;;;16.24;49.58
69351;BME280;57106;51.446;-2.606;2023-05-03T11:05:01;102402.36;;;16.20;49.26
69351;BME280;57106;51.446;-2.606;2023-05-03T11:07:24;102409.32;;;15.96;49.86
69351;BME280;57106;51.446;-2.606;2023-05-03T11:09:49;102409.16;;;16.31;49.52
69351;BME280;57106;51.446;-2.606;2023-05-03T11:12:15;102404.83;;;16.32;49.02
69351;BME280;57106;51.446;-2.606;2023-05-03T11:14:41;102406.35;;;16.20;49.22
69351;BME280;57106;51.446;-2.606;2023-05-03T11:17:06;102400.05;;;16.36;49.20
69351;BME280;57106;51.446;-2.606;2023-05-03T11:19:31;102398.30;;;16.25;49.13
69351;BME280;57106;51.446;-2.606;2023-05-03T11:21:57;102396.29;;;16.44;49.20
69351;BME280;57106;51.446;-2.606;2023-05-03T11:24:22;102389.43;;;16.50;48.72
69351;BME280;57106;51.446;-2.606;2023-05-03T11:26:48;102388.37;;;16.61;48.48
69351;BME280;57106;51.446;-2.606;2023-05-03T11:29:13;102387.44;;;16.27;48.03
69351;BME280;57106;51.446;-2.606;2023-05-03T11:31:39;102385.89;;;16.23;48.93
69351;BME280;57106;51.446;-2.606;2023-05-03T11:34:04;102379.87;;;16.22;48.68
69351;BME280;57106;51.446;-2.606;2023-05-03T11:36:29;102374.12;;;16.13;47.84
69351;BME280;57106;51.446;-2.606;2023-05-03T11:38:54;102370.54;;;16.17;47.71
69351;BME280;57106;51.446;-2.606;2023-05-03T11:41:20;102367.14;;;16.15;47.58
69351;BME280;57106;51.446;-2.606;2023-05-03T11:43:47;102359.34;;;16.28;47.27
69351;BME280;57106;51.446;-2.606;2023-05-03T11:46:12;102356.27;;;16.68;46.99
69351;BME280;57106;51.446;-2.606;2023-05-03T11:48:37;102353.94;;;16.87;46.62
69351;BME280;57106;51.446;-2.606;2023-05-03T11:51:06;102346.46;;;16.87;46.04
69351;BME280;57106;51.446;-2.606;2023-05-03T11:53:27;102341.42;;;17.04;46.12
69351;BME280;57106;51.446;-2.606;2023-05-03T11:55:53;102334.69;;;17.15;45.72
69351;BME280;57106;51.446;-2.606;2023-05-03T11:58:20;102327.87;;;17.19;45.78
69351;BME280;57106;51.446;-2.606;2023-05-03T12:00:44;102329.34;;;17.15;45.98
69351;BME280;57106;51.446;-2.606;2023-05-03T12:03:09;102324.54;;;16.63;46.72
69351;BME280;57106;51.446;-2.606;2023-05-03T12:05:34;102316.30;;;16.61;46.79
69351;BME280;57106;51.446;-2.606;2023-05-03T12:07:59;102321.00;;;16.85;46.71
69351;BME280;57106;51.446;-2.606;2023-05-03T12:10:30;102310.56;;;16.99;46.52
69351;BME280;57106;51.446;-2.606;2023-05-03T12:12:52;102300.05;;;17.14;46.19
69351;BME280;57106;51.446;-2.606;2023-05-03T12:15:26;102300.54;;;17.21;45.84
69351;BME280;57106;51.446;-2.606;2023-05-03T12:17:41;102296.92;;;17.16;45.89
69351;BME280;57106;51.446;-2.606;2023-05-03T12:20:13;102300.42;;;17.12;46.87
69351;BME280;57106;51.446;-2.606;2023-05-03T12:22:33;102289.67;;;16.93;46.93
69351;BME280;57106;51.446;-2.606;2023-05-03T12:24:57;102286.67;;;16.91;47.00
69351;BME280;57106;51.446;-2.606;2023-05-03T12:27:23;102286.77;;;16.79;46.83
69351;BME280;57106;51.446;-2.606;2023-05-03T12:29:49;102289.48;;;16.82;47.27
69351;BME280;57106;51.446;-2.606;2023-05-03T12:32:14;102282.55;;;17.09;47.01
69351;BME280;57106;51.446;-2.606;2023-05-03T12:34:39;102276.46;;;16.97;46.99
69351;BME280;57106;51.446;-2.606;2023-05-03T12:37:04;102276.16;;;17.28;46.66